Time;durP1;ratioP1;P1;durP2;ratioP2;P2;SDS_P1;SDS_P2;PMS_P1;PMS_P2;Temp;Humidity;BMP_temperature;BMP_pressure;BME280_temperature;BME280_humidity;BME280_pressure;Samples;Min_cycle;Max_cycle;Signal;HPM_P1;HPM_P2
2022/06/02 00:01:08;;;;;;;10.95;6.85;;;;;;;;;;4988003;28;20436;-70
2022/06/02 00:03:41;;;;;;;10.38;6.80;;;;;;;;;;5002516;28;20029;-70
2022/06/02 00:06:25;;;;;;;10.88;6.95;;;;;;;;;;5000284;28;20344;-70
2022/06/02 00:09:10;;;;;;;13.02;7.60;;;;;;;;;;4996715;28;20068;-70
2022/06/02 00:11:46;;;;;;;12.68;7.97;;;;;;;;;;4999807;28;20387;-70
2022/06/02 00:14:18;;;;;;;11.88;7.95;;;;;;;;;;5003173;28;20033;-70
2022/06/02 00:16:49;;;;;;;11.98;7.95;;;;;;;;;;5002649;28;20055;-70
2022/06/02 00:19:27;;;;;;;13.63;9.02;;;;;;;;;;5000870;28;20087;-69
2022/06/02 00:21:58;;;;;;;15.30;8.40;;;;;;;;;;4999251;28;20018;-70
2022/06/02 00:24:35;;;;;;;12.23;8.55;;;;;;;;;;5006015;28;20030;-69
2022/06/02 00:27:08;;;;;;;11.48;8.10;;;;;;;;;;5002474;28;20018;-70
2022/06/02 00:29:50;;;;;;;12.13;8.02;;;;;;;;;;5001431;28;20393;-70
2022/06/02 00:32:32;;;;;;;12.45;7.20;;;;;;;;;;4982850;28;20026;-70
2022/06/02 00:35:16;;;;;;;15.52;8.90;;;;;;;;;;4998115;28;20038;-70
2022/06/02 00:37:45;;;;;;;11.25;7.68;;;;;;;;;;4999397;28;20036;-70
2022/06/02 00:40:12;;;;;;;15.10;8.07;;;;;;;;;;4998689;28;20533;-69
2022/06/02 00:42:49;;;;;;;13.68;8.82;;;;;;;;;;5005167;28;20033;-70
2022/06/02 00:45:15;;;;;;;13.93;9.38;;;;;;;;;;5003147;28;20835;-69
2022/06/02 00:47:59;;;;;;;23.58;9.75;;;;;;;;;;5000314;28;20112;-69
2022/06/02 00:50:33;;;;;;;13.35;8.70;;;;;;;;;;5002592;28;20061;-69
2022/06/02 00:53:03;;;;;;;15.35;7.85;;;;;;;;;;5005548;28;20033;-69
2022/06/02 00:58:28;;;;;;;13.75;9.32;;;;;;;;;;5005301;28;20125;-69
2022/06/02 01:01:02;;;;;;;14.90;8.32;;;;;;;;;;5008171;28;20022;-69
2022/06/02 01:03:34;;;;;;;12.68;8.85;;;;;;;;;;5006665;28;20029;-69
2022/06/02 01:06:09;;;;;;;11.23;8.00;;;;;;;;;;4999695;28;20113;-69
2022/06/02 01:08:57;;;;;;;12.75;8.30;;;;;;;;;;5001692;28;20123;-69
2022/06/02 01:11:31;;;;;;;13.13;8.63;;;;;;;;;;4975199;28;20091;-69
2022/06/02 01:13:56;;;;;;;16.38;9.27;;;;;;;;;;5003992;28;20022;-69
2022/06/02 01:16:26;;;;;;;14.07;8.55;;;;;;;;;;5006238;28;20045;-69
2022/06/02 01:18:55;;;;;;;14.57;8.98;;;;;;;;;;5002747;28;20041;-70
2022/06/02 01:21:34;;;;;;;15.95;9.45;;;;;;;;;;4987880;28;20029;-69
2022/06/02 01:24:28;;;;;;;20.17;9.88;;;;;;;;;;5001233;28;20038;-70
2022/06/02 01:27:02;;;;;;;13.35;8.95;;;;;;;;;;4985435;28;20046;-69
2022/06/02 01:29:46;;;;;;;14.50;9.02;;;;;;;;;;4999906;28;20460;-69
2022/06/02 01:32:14;;;;;;;14.90;10.20;;;;;;;;;;5001086;28;20025;-69
2022/06/02 01:34:46;;;;;;;12.77;7.90;;;;;;;;;;5005967;28;20025;-70
2022/06/02 01:37:16;;;;;;;11.93;8.55;;;;;;;;;;5003727;28;20018;-70
2022/06/02 01:39:47;;;;;;;15.18;8.70;;;;;;;;;;5002373;28;20022;-70
2022/06/02 01:42:18;;;;;;;11.60;7.80;;;;;;;;;;5000333;28;20026;-69
2022/06/02 01:45:16;;;;;;;10.05;7.57;;;;;;;;;;5002214;28;20025;-70
2022/06/02 01:47:42;;;;;;;12.77;8.18;;;;;;;;;;4939522;28;20033;-69
2022/06/02 01:50:23;;;;;;;14.00;8.55;;;;;;;;;;5005305;28;20030;-69
2022/06/02 01:52:51;;;;;;;12.50;8.38;;;;;;;;;;5002319;28;20049;-69
2022/06/02 01:55:28;;;;;;;11.13;7.97;;;;;;;;;;5005749;28;20030;-70
2022/06/02 01:58:05;;;;;;;12.85;7.82;;;;;;;;;;5002978;28;20084;-69
2022/06/02 02:00:32;;;;;;;12.27;8.20;;;;;;;;;;5004511;28;20022;-70
2022/06/02 02:03:21;;;;;;;15.48;9.10;;;;;;;;;;5001715;28;20105;-70
2022/06/02 02:05:46;;;;;;;14.88;9.32;;;;;;;;;;5003114;28;20041;-70
2022/06/02 02:08:11;;;;;;;15.15;9.27;;;;;;;;;;5002480;28;20041;-69
2022/06/02 02:10:55;;;;;;;13.73;9.57;;;;;;;;;;5004412;28;20359;-70
2022/06/02 02:13:41;;;;;;;16.08;10.48;;;;;;;;;;4997888;28;20034;-70
2022/06/02 02:16:42;;;;;;;12.57;8.45;;;;;;;;;;4998073;28;20030;-70
2022/06/02 02:19:25;;;;;;;12.35;8.75;;;;;;;;;;4885916;29;20143;-70
2022/06/02 02:22:05;;;;;;;11.60;8.20;;;;;;;;;;4993096;28;20069;-70
2022/06/02 02:24:53;;;;;;;13.45;8.73;;;;;;;;;;5000016;28;20473;-70
2022/06/02 02:27:18;;;;;;;14.32;9.27;;;;;;;;;;4998282;28;20041;-70
2022/06/02 02:29:43;;;;;;;13.68;8.25;;;;;;;;;;5001757;28;20048;-70
2022/06/02 02:32:15;;;;;;;16.92;7.95;;;;;;;;;;4999528;28;20078;-70
2022/06/02 02:34:55;;;;;;;13.55;9.20;;;;;;;;;;5005401;28;20076;-70
2022/06/02 02:37:25;;;;;;;13.57;9.60;;;;;;;;;;5000284;28;20029;-70
2022/06/02 02:40:11;;;;;;;15.50;9.35;;;;;;;;;;4999305;28;20465;-70
2022/06/02 02:42:51;;;;;;;14.65;9.13;;;;;;;;;;5001650;28;20044;-70
2022/06/02 02:45:19;;;;;;;14.45;9.43;;;;;;;;;;4999700;28;20385;-70
2022/06/02 02:47:57;;;;;;;15.02;9.00;;;;;;;;;;5001166;28;20053;-70
2022/06/02 02:50:31;;;;;;;15.32;10.00;;;;;;;;;;5001736;28;20057;-70
2022/06/02 02:53:02;;;;;;;15.55;9.63;;;;;;;;;;4999960;28;20026;-70
2022/06/02 02:55:30;;;;;;;17.40;10.18;;;;;;;;;;5000126;28;20442;-69
2022/06/02 02:58:04;;;;;;;12.93;9.30;;;;;;;;;;5005172;28;20041;-70
2022/06/02 03:00:33;;;;;;;18.80;11.05;;;;;;;;;;4999380;28;20543;-70
2022/06/02 03:03:08;;;;;;;16.13;9.40;;;;;;;;;;4984708;28;20038;-70
2022/06/02 03:05:42;;;;;;;16.80;10.35;;;;;;;;;;5002220;28;20022;-70
2022/06/02 03:08:07;;;;;;;;;;;;;;;;;;5004028;28;20026;-70
2022/06/02 03:10:36;;;;;;;17.48;10.02;;;;;;;;;;5001382;28;19918;-70
2022/06/02 03:13:02;;;;;;;14.20;9.68;;;;;;;;;;5005741;28;20742;-70
2022/06/02 03:15:32;;;;;;;16.73;10.50;;;;;;;;;;5002649;28;20468;-70
2022/06/02 03:18:27;;;;;;;17.35;9.82;;;;;;;;;;4998182;28;20022;-70
2022/06/02 03:21:08;;;;;;;18.25;11.52;;;;;;;;;;4978695;28;20041;-70
2022/06/02 03:23:51;;;;;;;14.25;8.88;;;;;;;;;;5001987;28;20092;-70
2022/06/02 03:26:19;;;;;;;17.13;11.02;;;;;;;;;;5001584;28;20028;-69
2022/06/02 03:29:11;;;;;;;17.48;10.10;;;;;;;;;;5004529;28;20038;-70
2022/06/02 03:31:39;;;;;;;15.88;9.95;;;;;;;;;;4974479;28;20048;-70
2022/06/02 03:34:07;;;;;;;16.02;10.05;;;;;;;;;;5004975;28;20445;-70
2022/06/02 03:36:58;;;;;;;23.25;10.45;;;;;;;;;;5003341;28;20025;-70
2022/06/02 03:39:33;;;;;;;16.05;10.20;;;;;;;;;;5006662;28;20056;-70
2022/06/02 03:42:04;;;;;;;17.17;10.20;;;;;;;;;;5004571;28;20025;-70
2022/06/02 03:44:42;;;;;;;20.80;12.60;;;;;;;;;;5005839;28;20606;-70
2022/06/02 03:47:07;;;;;;;21.85;11.73;;;;;;;;;;5011545;28;20503;-70
2022/06/02 03:49:51;;;;;;;19.75;11.82;;;;;;;;;;5011291;28;20388;-70
2022/06/02 03:52:40;;;;;;;17.27;10.73;;;;;;;;;;5000303;28;20018;-70
2022/06/02 03:55:08;;;;;;;18.98;11.02;;;;;;;;;;5004127;28;20054;-70
2022/06/02 03:57:40;;;;;;;22.92;12.88;;;;;;;;;;5005071;28;20121;-70
2022/06/02 04:00:08;;;;;;;22.35;12.23;;;;;;;;;;5004391;28;20068;-70
2022/06/02 04:02:41;;;;;;;22.95;12.90;;;;;;;;;;5002872;28;20022;-70
2022/06/02 04:05:18;;;;;;;21.48;12.48;;;;;;;;;;4988915;28;20029;-70
2022/06/02 04:07:52;;;;;;;25.65;13.10;;;;;;;;;;5002693;28;20029;-70
2022/06/02 04:10:27;;;;;;;22.02;11.93;;;;;;;;;;5011794;28;20350;-70
2022/06/02 04:15:52;;;;;;;26.27;14.55;;;;;;;;;;5005232;28;20099;-70
2022/06/02 04:18:26;;;;;;;22.05;13.63;;;;;;;;;;5001599;28;20484;-70
2022/06/02 04:20:51;;;;;;;22.45;13.05;;;;;;;;;;5004114;28;20033;-70
2022/06/02 04:23:35;;;;;;;23.40;12.48;;;;;;;;;;4988966;28;20068;-70
2022/06/02 04:26:22;;;;;;;22.13;12.68;;;;;;;;;;5002138;28;20032;-70
2022/06/02 04:29:02;;;;;;;20.80;13.10;;;;;;;;;;5002475;28;20369;-70
2022/06/02 04:31:37;;;;;;;19.85;12.48;;;;;;;;;;5005170;28;20022;-70
2022/06/02 04:34:07;;;;;;;22.15;12.98;;;;;;;;;;5001917;28;20034;-70
2022/06/02 04:36:36;;;;;;;31.67;13.90;;;;;;;;;;4999863;28;20038;-70
2022/06/02 04:39:20;;;;;;;23.55;12.85;;;;;;;;;;5002862;28;20384;-70
2022/06/02 04:42:01;;;;;;;25.20;13.52;;;;;;;;;;5000869;28;20018;-70
2022/06/02 04:44:26;;;;;;;25.60;14.57;;;;;;;;;;5008193;28;20140;-70
2022/06/02 04:47:06;;;;;;;31.38;16.13;;;;;;;;;;5005096;28;20104;-70
2022/06/02 04:49:40;;;;;;;24.08;14.55;;;;;;;;;;4994001;28;20057;-68
2022/06/02 04:52:38;;;;;;;29.35;16.10;;;;;;;;;;5005643;28;20315;-68
2022/06/02 04:55:14;;;;;;;40.92;17.67;;;;;;;;;;4970213;28;20054;-70
2022/06/02 04:57:51;;;;;;;31.02;17.23;;;;;;;;;;4983777;28;20416;-67
2022/06/02 05:00:35;;;;;;;28.60;16.77;;;;;;;;;;5003721;28;20034;-67
2022/06/02 05:03:01;;;;;;;28.35;15.80;;;;;;;;;;5004562;28;20018;-68
2022/06/02 05:05:30;;;;;;;31.52;16.15;;;;;;;;;;5006975;28;20033;-68
2022/06/02 05:08:14;;;;;;;29.00;16.40;;;;;;;;;;5004452;28;20286;-69
2022/06/02 05:10:58;;;;;;;33.80;17.33;;;;;;;;;;5017163;28;20061;-69
2022/06/02 05:13:33;;;;;;;33.63;17.20;;;;;;;;;;5004871;28;20054;-69
2022/06/02 05:16:15;;;;;;;39.90;21.83;;;;;;;;;;5007620;28;20025;-70
2022/06/02 05:19:08;;;;;;;46.55;22.98;;;;;;;;;;4985763;28;20043;-69
2022/06/02 05:21:39;;;;;;;44.63;22.75;;;;;;;;;;5002663;28;20119;-70
2022/06/02 05:24:16;;;;;;;45.28;21.52;;;;;;;;;;4993160;28;20069;-70
2022/06/02 05:26:44;;;;;;;47.10;23.15;;;;;;;;;;4998008;28;20034;-69
2022/06/02 05:29:09;;;;;;;41.53;22.42;;;;;;;;;;5011780;28;20022;-70
2022/06/02 05:31:34;;;;;;;41.88;22.05;;;;;;;;;;5004283;28;20388;-70
2022/06/02 05:34:15;;;;;;;43.42;21.20;;;;;;;;;;5010667;28;20026;-69
2022/06/02 05:37:06;;;;;;;45.00;21.80;;;;;;;;;;5003191;28;20290;-68
2022/06/02 05:39:43;;;;;;;37.25;20.90;;;;;;;;;;4975269;28;20045;-68
2022/06/02 05:42:32;;;;;;;48.67;23.88;;;;;;;;;;5002918;28;20045;-69
2022/06/02 05:45:08;;;;;;;45.95;22.35;;;;;;;;;;5013930;28;20087;-68
2022/06/02 05:48:00;;;;;;;45.97;22.65;;;;;;;;;;5004123;28;20111;-68
2022/06/02 05:50:29;;;;;;;44.75;22.90;;;;;;;;;;4965643;28;20030;-68
2022/06/02 05:53:03;;;;;;;44.90;23.05;;;;;;;;;;4995160;28;20039;-68
2022/06/02 05:55:35;;;;;;;49.28;22.67;;;;;;;;;;5007353;28;20168;-68
2022/06/02 05:58:19;;;;;;;54.42;23.55;;;;;;;;;;5015337;28;20013;-68
2022/06/02 06:01:00;;;;;;;44.75;23.10;;;;;;;;;;5009546;28;20049;-67
2022/06/02 06:03:32;;;;;;;43.58;22.55;;;;;;;;;;5007488;28;20037;-68
2022/06/02 06:06:04;;;;;;;62.22;23.80;;;;;;;;;;5008446;28;20053;-67
2022/06/02 06:08:47;;;;;;;47.92;23.23;;;;;;;;;;5011204;28;20045;-70
2022/06/02 06:11:15;;;;;;;46.15;24.35;;;;;;;;;;5006801;28;20094;-68
2022/06/02 06:14:00;;;;;;;44.15;23.27;;;;;;;;;;5008165;28;20030;-68
2022/06/02 06:16:39;;;;;;;45.33;23.52;;;;;;;;;;5005239;28;20484;-67
2022/06/02 06:19:16;;;;;;;42.78;22.70;;;;;;;;;;5000419;28;20474;-67
2022/06/02 06:21:41;;;;;;;45.35;23.02;;;;;;;;;;5000254;28;20456;-68
2022/06/02 06:24:20;;;;;;;43.70;23.57;;;;;;;;;;5003006;28;20061;-67
2022/06/02 06:26:48;;;;;;;41.72;22.88;;;;;;;;;;5014636;28;20286;-68
2022/06/02 06:29:26;;;;;;;40.00;21.33;;;;;;;;;;5005080;28;20031;-68
2022/06/02 06:31:52;;;;;;;41.47;22.05;;;;;;;;;;4998692;28;20095;-68
2022/06/02 06:34:36;;;;;;;46.78;23.13;;;;;;;;;;5009152;28;20457;-68
2022/06/02 06:37:08;;;;;;;42.53;22.42;;;;;;;;;;5007239;28;20044;-68
2022/06/02 06:39:49;;;;;;;42.47;23.20;;;;;;;;;;5008319;28;20041;-68
2022/06/02 06:42:15;;;;;;;40.38;24.35;;;;;;;;;;5019834;28;20029;-68
2022/06/02 06:44:43;;;;;;;72.03;23.63;;;;;;;;;;5012292;28;20099;-68
2022/06/02 06:47:21;;;;;;;35.67;20.33;;;;;;;;;;5009701;28;20278;-68
2022/06/02 06:50:05;;;;;;;34.20;17.98;;;;;;;;;;5011608;28;20040;-68
2022/06/02 06:52:48;;;;;;;30.65;17.63;;;;;;;;;;5009554;28;20087;-71
2022/06/02 06:55:16;;;;;;;25.13;15.43;;;;;;;;;;5009399;28;20036;-68
2022/06/02 06:57:56;;;;;;;24.13;14.75;;;;;;;;;;5012311;28;20033;-68
2022/06/02 07:00:24;;;;;;;25.85;14.02;;;;;;;;;;5009494;28;20087;-68
2022/06/02 07:03:06;;;;;;;20.75;13.95;;;;;;;;;;5012115;28;20144;-69
2022/06/02 07:05:36;;;;;;;22.35;14.20;;;;;;;;;;5016766;28;20026;-68
2022/06/02 07:08:04;;;;;;;23.02;13.45;;;;;;;;;;5014142;28;20025;-69
2022/06/02 07:10:29;;;;;;;18.92;12.55;;;;;;;;;;5010452;28;20037;-70
2022/06/02 07:12:58;;;;;;;17.10;11.68;;;;;;;;;;5010705;28;20029;-69
2022/06/02 07:15:33;;;;;;;19.92;11.35;;;;;;;;;;5008072;28;20018;-69
2022/06/02 07:17:58;;;;;;;17.02;9.95;;;;;;;;;;5008118;28;20081;-69
2022/06/02 07:20:40;;;;;;;16.10;10.70;;;;;;;;;;5016825;28;20156;-69
2022/06/02 07:23:15;;;;;;;19.23;10.75;;;;;;;;;;5009527;28;20124;-68
2022/06/02 07:25:51;;;;;;;12.43;8.90;;;;;;;;;;5009957;28;20030;-69
2022/06/02 07:28:29;;;;;;;13.48;8.95;;;;;;;;;;5011672;28;20025;-69
2022/06/02 07:31:12;;;;;;;12.48;8.82;;;;;;;;;;5011295;28;20041;-69
2022/06/02 07:33:58;;;;;;;14.73;9.48;;;;;;;;;;5018471;28;20730;-69
2022/06/02 07:36:38;;;;;;;15.93;10.05;;;;;;;;;;5013155;28;20030;-69
2022/06/02 07:39:06;;;;;;;10.13;8.00;;;;;;;;;;5011005;28;20065;-69
2022/06/02 07:41:42;;;;;;;13.73;8.50;;;;;;;;;;5009596;28;20067;-69
2022/06/02 07:44:07;;;;;;;11.15;9.05;;;;;;;;;;5018451;28;20088;-69
2022/06/02 07:46:42;;;;;;;13.27;9.68;;;;;;;;;;5019696;28;20033;-69
2022/06/02 07:49:13;;;;;;;15.45;10.27;;;;;;;;;;5013868;28;20427;-68
2022/06/02 07:51:38;;;;;;;14.38;8.77;;;;;;;;;;5009831;28;20112;-69
2022/06/02 07:54:31;;;;;;;17.05;10.18;;;;;;;;;;5006365;28;20063;-68
2022/06/02 07:57:07;;;;;;;15.93;9.30;;;;;;;;;;5011214;28;20396;-69
2022/06/02 07:59:39;;;;;;;12.52;8.32;;;;;;;;;;5008301;28;20022;-69
2022/06/02 08:02:17;;;;;;;12.75;8.82;;;;;;;;;;5004949;28;20025;-69
2022/06/02 08:04:49;;;;;;;19.08;10.23;;;;;;;;;;5003763;28;20033;-69
2022/06/02 08:07:21;;;;;;;15.70;9.68;;;;;;;;;;5007459;28;20509;-69
2022/06/02 08:10:22;;;;;;;25.50;15.73;;;;;;;;;;5001915;28;20404;-70
2022/06/02 08:12:57;;;;;;;11.52;7.75;;;;;;;;;;4935049;29;20047;-69
2022/06/02 08:15:29;;;;;;;10.75;7.88;;;;;;;;;;4992885;28;20461;-68
2022/06/02 08:18:01;;;;;;;10.57;7.88;;;;;;;;;;5010207;28;20108;-69
2022/06/02 08:20:42;;;;;;;8.65;7.22;;;;;;;;;;5013858;28;20018;-69
2022/06/02 08:23:11;;;;;;;11.48;7.50;;;;;;;;;;5014293;28;20523;-69
2022/06/02 08:25:55;;;;;;;11.13;7.80;;;;;;;;;;5006986;28;20084;-69
2022/06/02 08:28:31;;;;;;;15.15;8.48;;;;;;;;;;5011860;28;20028;-69
2022/06/02 08:31:18;;;;;;;12.02;9.40;;;;;;;;;;5007991;28;20033;-69
2022/06/02 08:34:02;;;;;;;13.32;8.38;;;;;;;;;;4996382;28;20040;-68
2022/06/02 08:36:30;;;;;;;13.10;9.32;;;;;;;;;;5004723;28;20026;-68
2022/06/02 08:39:13;;;;;;;12.68;9.63;;;;;;;;;;5003605;28;20026;-70
2022/06/02 08:41:57;;;;;;;12.57;9.35;;;;;;;;;;5006431;28;20029;-69
2022/06/02 08:44:37;;;;;;;11.68;9.27;;;;;;;;;;5006361;28;20076;-69
2022/06/02 08:47:21;;;;;;;11.73;9.40;;;;;;;;;;4998745;28;20480;-69
2022/06/02 08:50:10;;;;;;;13.77;8.75;;;;;;;;;;4999006;28;20848;-68
2022/06/02 08:52:53;;;;;;;13.27;10.07;;;;;;;;;;5007880;28;20453;-68
2022/06/02 08:55:27;;;;;;;13.18;9.32;;;;;;;;;;5013754;28;20037;-74
2022/06/02 08:57:52;;;;;;;10.13;8.23;;;;;;;;;;5019242;28;20113;-68
2022/06/02 09:00:23;;;;;;;9.32;7.13;;;;;;;;;;5010477;28;20032;-69
2022/06/02 09:03:07;;;;;;;11.50;8.85;;;;;;;;;;5001015;28;20089;-71
2022/06/02 09:05:51;;;;;;;8.60;7.25;;;;;;;;;;5005872;28;20040;-68
2022/06/02 09:08:25;;;;;;;8.48;7.00;;;;;;;;;;5002010;28;20497;-69
2022/06/02 09:11:09;;;;;;;7.65;6.60;;;;;;;;;;5003944;28;20388;-71
2022/06/02 09:13:38;;;;;;;8.70;6.90;;;;;;;;;;5012982;28;20079;-70
2022/06/02 09:16:22;;;;;;;9.65;6.60;;;;;;;;;;5010189;28;20029;-68
2022/06/02 09:19:05;;;;;;;11.05;7.22;;;;;;;;;;5006110;28;20652;-68
2022/06/02 09:21:43;;;;;;;8.25;7.10;;;;;;;;;;5005252;28;20091;-68
2022/06/02 09:24:08;;;;;;;7.68;6.80;;;;;;;;;;5011429;28;20473;-68
2022/06/02 09:26:33;;;;;;;10.00;7.28;;;;;;;;;;5009465;28;20388;-69
2022/06/02 09:29:06;;;;;;;13.30;6.90;;;;;;;;;;5002235;28;20066;-69
2022/06/02 09:31:42;;;;;;;7.75;6.25;;;;;;;;;;5001574;28;20021;-68
2022/06/02 09:34:14;;;;;;;7.57;5.72;;;;;;;;;;5001325;28;20096;-70
2022/06/02 09:36:59;;;;;;;7.20;5.60;;;;;;;;;;5002228;28;20487;-69
2022/06/02 09:39:30;;;;;;;8.38;6.05;;;;;;;;;;4968367;28;20038;-69
2022/06/02 09:42:07;;;;;;;6.85;6.15;;;;;;;;;;5014976;28;20033;-68
2022/06/02 09:44:35;;;;;;;7.25;6.10;;;;;;;;;;5016295;28;20156;-68
2022/06/02 09:47:19;;;;;;;7.78;6.30;;;;;;;;;;5005275;28;20029;-68
2022/06/02 09:50:10;;;;;;;5.68;5.07;;;;;;;;;;5006430;28;20042;-70
2022/06/02 09:52:38;;;;;;;8.52;5.70;;;;;;;;;;4965856;28;20061;-69
2022/06/02 09:55:06;;;;;;;8.45;4.97;;;;;;;;;;5008625;28;20103;-70
2022/06/02 09:57:55;;;;;;;7.05;4.57;;;;;;;;;;5006427;28;20472;-68
2022/06/02 10:00:32;;;;;;;5.78;4.43;;;;;;;;;;5007384;28;20033;-69
2022/06/02 10:03:01;;;;;;;5.32;4.85;;;;;;;;;;5005070;28;20025;-68
2022/06/02 10:05:36;;;;;;;7.60;6.40;;;;;;;;;;5007434;28;20024;-74
2022/06/02 10:08:10;;;;;;;8.93;6.32;;;;;;;;;;5006731;28;20087;-69
2022/06/02 10:10:41;;;;;;;9.32;5.38;;;;;;;;;;5003722;28;20038;-69
2022/06/02 10:13:18;;;;;;;4.68;4.28;;;;;;;;;;5009650;28;20503;-68
2022/06/02 10:16:03;;;;;;;4.90;4.50;;;;;;;;;;5002824;28;20026;-69
2022/06/02 10:18:40;;;;;;;5.47;4.57;;;;;;;;;;5010769;28;20367;-68
2022/06/02 10:21:06;;;;;;;4.22;3.88;;;;;;;;;;5004698;28;20026;-69
2022/06/02 10:23:48;;;;;;;5.03;3.97;;;;;;;;;;5006119;28;20028;-68
2022/06/02 10:26:14;;;;;;;10.02;4.95;;;;;;;;;;5007284;28;20022;-69
2022/06/02 10:28:58;;;;;;;5.72;5.18;;;;;;;;;;4995120;28;20030;-69
2022/06/02 10:31:23;;;;;;;;;;;;;;;;;;5006509;28;20067;-69
2022/06/02 10:34:07;;;;;;;4.63;4.23;;;;;;;;;;5022337;28;19957;-68
2022/06/02 10:36:38;;;;;;;5.20;4.70;;;;;;;;;;5006228;28;20029;-69
2022/06/02 10:39:17;;;;;;;4.50;4.10;;;;;;;;;;5005611;28;20065;-68
2022/06/02 10:41:45;;;;;;;5.50;4.97;;;;;;;;;;5007424;28;20175;-69
2022/06/02 10:44:24;;;;;;;5.65;4.40;;;;;;;;;;5020645;28;20404;-68
2022/06/02 10:47:08;;;;;;;6.78;4.70;;;;;;;;;;5004819;28;20730;-68
2022/06/02 10:49:40;;;;;;;4.78;4.10;;;;;;;;;;5009539;28;20046;-69
2022/06/02 10:52:08;;;;;;;7.30;6.38;;;;;;;;;;5008323;28;20419;-68
2022/06/02 10:54:40;;;;;;;6.70;5.70;;;;;;;;;;5007983;28;20485;-69
2022/06/02 10:57:32;;;;;;;8.18;6.60;;;;;;;;;;5010147;28;20033;-70
2022/06/02 11:00:08;;;;;;;5.78;5.28;;;;;;;;;;5002160;28;20037;-69
2022/06/02 11:02:54;;;;;;;6.10;5.10;;;;;;;;;;5003022;28;20022;-68
2022/06/02 11:05:26;;;;;;;5.88;5.15;;;;;;;;;;5012842;28;20029;-69
2022/06/02 11:07:57;;;;;;;52.85;6.47;;;;;;;;;;5002435;28;20030;-68
2022/06/02 11:10:27;;;;;;;5.63;5.13;;;;;;;;;;5008072;28;20021;-69
2022/06/02 11:13:11;;;;;;;5.82;4.70;;;;;;;;;;5011618;28;20346;-69
2022/06/02 11:15:48;;;;;;;4.88;4.38;;;;;;;;;;5008364;28;20053;-68
2022/06/02 11:18:22;;;;;;;5.10;4.43;;;;;;;;;;5003564;28;20049;-68
2022/06/02 11:20:50;;;;;;;8.20;4.35;;;;;;;;;;4998764;28;20017;-70
2022/06/02 11:23:34;;;;;;;5.72;4.20;;;;;;;;;;5010927;28;20123;-70
2022/06/02 11:26:11;;;;;;;5.75;4.90;;;;;;;;;;5008977;28;20113;-71
2022/06/02 11:28:42;;;;;;;4.80;4.40;;;;;;;;;;5014047;28;20065;-69
2022/06/02 11:31:30;;;;;;;9.43;5.10;;;;;;;;;;5007725;28;20072;-69
2022/06/02 11:34:05;;;;;;;8.18;5.85;;;;;;;;;;4991548;28;20433;-68
2022/06/02 11:36:42;;;;;;;5.85;5.25;;;;;;;;;;5007109;28;20022;-69
2022/06/02 11:39:34;;;;;;;6.95;5.00;;;;;;;;;;5005478;28;20057;-72
2022/06/02 11:42:38;;;;;;;5.88;5.30;;;;;;;;;;5001738;28;20428;-69
2022/06/02 11:45:16;;;;;;;6.07;5.35;;;;;;;;;;4890162;29;20389;-71
2022/06/02 11:47:42;;;;;;;6.18;5.57;;;;;;;;;;4890110;29;20127;-70
2022/06/02 11:50:10;;;;;;;6.32;5.50;;;;;;;;;;4948449;28;20040;-71
2022/06/02 11:52:45;;;;;;;5.15;4.65;;;;;;;;;;5006887;28;20033;-72
2022/06/02 11:55:29;;;;;;;5.18;4.65;;;;;;;;;;5006799;28;20040;-72
2022/06/02 11:57:54;;;;;;;6.45;5.90;;;;;;;;;;5005216;28;20105;-71
2022/06/02 12:00:41;;;;;;;5.53;5.03;;;;;;;;;;5004566;28;20026;-71
2022/06/02 12:03:07;;;;;;;5.28;4.00;;;;;;;;;;5002997;28;20025;-70
2022/06/02 12:05:50;;;;;;;4.30;3.97;;;;;;;;;;5006844;28;20022;-70
2022/06/02 12:08:15;;;;;;;;;;;;;;;;;;5003138;28;21906;-71
2022/06/02 12:10:40;;;;;;;5.97;3.90;;;;;;;;;;5006718;28;19996;-71
2022/06/02 12:13:15;;;;;;;5.57;4.38;;;;;;;;;;5006755;28;20192;-71
2022/06/02 12:15:48;;;;;;;4.80;4.20;;;;;;;;;;5003296;28;20104;-69
2022/06/02 12:18:26;;;;;;;7.38;3.60;;;;;;;;;;5004411;28;20022;-70
2022/06/02 12:21:00;;;;;;;3.80;3.50;;;;;;;;;;5005336;28;20548;-71
2022/06/02 12:23:44;;;;;;;4.40;4.00;;;;;;;;;;5003653;28;20540;-71
2022/06/02 12:26:35;;;;;;;5.53;5.03;;;;;;;;;;5008764;28;20088;-74
2022/06/02 12:29:06;;;;;;;4.32;3.90;;;;;;;;;;5001983;28;20034;-71
2022/06/02 12:31:48;;;;;;;6.85;4.93;;;;;;;;;;5018634;28;20021;-70
2022/06/02 12:34:25;;;;;;;4.95;4.57;;;;;;;;;;5009207;28;20033;-71
2022/06/02 12:37:03;;;;;;;5.18;4.60;;;;;;;;;;5008280;28;20026;-70
2022/06/02 12:40:07;;;;;;;4.30;3.95;;;;;;;;;;5008139;28;20100;-70
2022/06/02 12:42:52;;;;;;;3.95;3.65;;;;;;;;;;4932706;29;20416;-70
2022/06/02 12:45:20;;;;;;;4.25;3.95;;;;;;;;;;4930597;29;20035;-70
2022/06/02 12:48:03;;;;;;;4.95;4.55;;;;;;;;;;4970818;28;20578;-70
2022/06/02 12:50:31;;;;;;;5.18;4.20;;;;;;;;;;5009404;28;20065;-70
2022/06/02 12:52:56;;;;;;;4.88;4.25;;;;;;;;;;5020546;28;20026;-70
2022/06/02 12:55:37;;;;;;;4.80;4.30;;;;;;;;;;5003435;28;20460;-73
2022/06/02 12:58:21;;;;;;;4.57;4.25;;;;;;;;;;5005968;28;20010;-71
2022/06/02 13:01:06;;;;;;;4.63;4.22;;;;;;;;;;5013612;28;20025;-69
2022/06/02 13:03:37;;;;;;;3.50;3.30;;;;;;;;;;5011237;28;20025;-72
2022/06/02 13:06:02;;;;;;;3.97;3.63;;;;;;;;;;5006523;28;20021;-69
2022/06/02 13:08:38;;;;;;;4.65;3.92;;;;;;;;;;5001343;28;20036;-70
2022/06/02 13:11:11;;;;;;;3.53;3.10;;;;;;;;;;5009916;28;20370;-68
2022/06/02 13:13:45;;;;;;;3.03;2.75;;;;;;;;;;5012475;28;20120;-69
2022/06/02 13:16:28;;;;;;;2.28;2.10;;;;;;;;;;4997902;28;20042;-70
2022/06/02 13:18:56;;;;;;;3.03;1.85;;;;;;;;;;5008035;28;20480;-67
2022/06/02 13:21:21;;;;;;;3.63;2.10;;;;;;;;;;5011568;28;20108;-68
2022/06/02 13:24:02;;;;;;;4.28;2.05;;;;;;;;;;5013292;28;20044;-69
2022/06/02 13:26:28;;;;;;;1.55;1.45;;;;;;;;;;5008064;28;20320;-69
2022/06/02 13:29:09;;;;;;;1.70;1.60;;;;;;;;;;5010474;28;20032;-69
2022/06/02 13:31:57;;;;;;;2.53;2.35;;;;;;;;;;5018943;28;20025;-70
2022/06/02 13:34:41;;;;;;;2.75;2.55;;;;;;;;;;5006927;28;20692;-70
2022/06/02 13:37:25;;;;;;;3.25;2.00;;;;;;;;;;5006701;28;20041;-69
2022/06/02 13:39:50;;;;;;;2.20;2.00;;;;;;;;;;5009900;28;20491;-69
2022/06/02 13:42:28;;;;;;;2.47;1.57;;;;;;;;;;5006437;28;20029;-69
2022/06/02 13:44:53;;;;;;;1.67;1.58;;;;;;;;;;5009163;28;20038;-68
2022/06/02 13:47:37;;;;;;;1.88;1.70;;;;;;;;;;5005080;28;20028;-69
2022/06/02 13:50:11;;;;;;;2.72;2.25;;;;;;;;;;5007227;28;20029;-69
2022/06/02 13:52:36;;;;;;;3.10;1.77;;;;;;;;;;5010315;28;20043;-68
2022/06/02 13:58:16;;;;;;;1.88;1.75;;;;;;;;;;5008213;28;20345;-68
2022/06/02 14:00:50;;;;;;;2.10;1.83;;;;;;;;;;5008018;28;20045;-69
2022/06/02 14:03:33;;;;;;;3.08;1.88;;;;;;;;;;5006947;28;20025;-69
2022/06/02 14:06:07;;;;;;;3.30;1.90;;;;;;;;;;5005142;28;20523;-70
2022/06/02 14:08:35;;;;;;;2.05;1.60;;;;;;;;;;5014175;28;20164;-71
2022/06/02 14:11:12;;;;;;;1.95;1.65;;;;;;;;;;5007685;28;20051;-69
2022/06/02 14:13:37;;;;;;;1.90;1.50;;;;;;;;;;5004681;28;20030;-69
2022/06/02 14:16:20;;;;;;;6.32;2.30;;;;;;;;;;5007255;28;20032;-69
2022/06/02 14:19:04;;;;;;;2.63;2.13;;;;;;;;;;5006181;28;20038;-69
2022/06/02 14:21:48;;;;;;;2.33;2.08;;;;;;;;;;5001324;28;20056;-70
2022/06/02 14:24:26;;;;;;;2.40;2.20;;;;;;;;;;5005943;28;20034;-69
2022/06/02 14:26:56;;;;;;;2.20;2.00;;;;;;;;;;5012468;28;20405;-70
2022/06/02 14:29:55;;;;;;;2.55;2.35;;;;;;;;;;5004668;28;20022;-70
2022/06/02 14:32:23;;;;;;;2.78;2.58;;;;;;;;;;4984440;28;20485;-70
2022/06/02 14:35:04;;;;;;;2.55;2.35;;;;;;;;;;5014143;28;20388;-69
2022/06/02 14:37:33;;;;;;;2.40;2.20;;;;;;;;;;5003900;28;20021;-68
2022/06/02 14:40:07;;;;;;;2.50;2.30;;;;;;;;;;5005670;28;20096;-68
2022/06/02 14:43:06;;;;;;;2.15;2.00;;;;;;;;;;5011391;28;20497;-68
2022/06/02 14:45:50;;;;;;;3.72;2.30;;;;;;;;;;4962527;28;20392;-67
2022/06/02 14:48:15;;;;;;;2.40;2.20;;;;;;;;;;5005953;28;20451;-69
2022/06/02 14:50:43;;;;;;;2.63;2.35;;;;;;;;;;5005501;28;20105;-68
2022/06/02 14:53:09;;;;;;;2.88;2.30;;;;;;;;;;5008137;28;20030;-69
2022/06/02 14:55:51;;;;;;;3.20;2.90;;;;;;;;;;5004431;28;20081;-71
2022/06/02 14:58:16;;;;;;;3.08;2.50;;;;;;;;;;5011972;28;20076;-72
2022/06/02 15:00:52;;;;;;;2.90;2.57;;;;;;;;;;5006339;28;20491;-72
2022/06/02 15:03:33;;;;;;;1.85;1.70;;;;;;;;;;5017107;28;20387;-71
2022/06/02 15:06:00;;;;;;;2.38;2.17;;;;;;;;;;5009067;28;20019;-71
2022/06/02 15:08:43;;;;;;;2.40;2.20;;;;;;;;;;5016480;28;20017;-72
2022/06/02 15:11:16;;;;;;;2.70;2.45;;;;;;;;;;5010044;28;20452;-71
2022/06/02 15:13:56;;;;;;;2.75;2.50;;;;;;;;;;5002432;28;20057;-69
2022/06/02 15:16:40;;;;;;;3.42;2.70;;;;;;;;;;5016064;28;20025;-69
2022/06/02 15:19:05;;;;;;;;;;;;;;;;;;5001960;28;20154;-71
2022/06/02 15:21:49;;;;;;;4.63;3.00;;;;;;;;;;5001535;28;19914;-68
2022/06/02 15:24:25;;;;;;;4.75;3.42;;;;;;;;;;5003953;28;20080;-68
2022/06/02 15:27:03;;;;;;;4.03;2.80;;;;;;;;;;5001669;28;20033;-69
2022/06/02 15:29:47;;;;;;;3.33;3.03;;;;;;;;;;4994122;28;20022;-69
2022/06/02 15:32:12;;;;;;;;;;;;;;;;;;5004587;28;20048;-69
2022/06/02 15:34:56;;;;;;;3.50;3.22;;;;;;;;;;5000657;28;19917;-68